Nottinghill, Missouri
Current Conditions -  °F | °C
As of 7:53 PM on Friday 24 Oct 2014 (Local Time) from KBPK Reporting Station
Clear Clear  
Wind Chill: 64°   Ceiling: Unl
Heat Index: 64°   Visibility: 9mi
Dew Point: 58°   Wind: 5mph
Humidity: 80%   Direction: 150°SSE
Pressure: 30.06"   Gusts: NA
Location:  36.7078°N, 92.6528°W
Report Text: KBPK 250053Z AUTO 15004KT 9SM CLR 18/14 A3006 RMK AO2 SLP178 T01780144
Loading
Personal Weather Stations






























Interactive Weather Map
Tropical Storm Tracking
New forecast layout! Learn more

10-Day Weather Forecast

Advertisements
Track Severe Weather on mobile